sensor_id;sensor_type;location;lat;lon;timestamp;temperature;humidity
9973;DHT22;5027;53.560;10.062;2023-05-10T00:00:45;18.70;89.20
9973;DHT22;5027;53.560;10.062;2023-05-10T00:03:12;18.70;89.40
9973;DHT22;5027;53.560;10.062;2023-05-10T00:05:39;18.70;89.30
9973;DHT22;5027;53.560;10.062;2023-05-10T00:08:06;18.70;89.80
9973;DHT22;5027;53.560;10.062;2023-05-10T00:10:32;18.70;90.00
9973;DHT22;5027;53.560;10.062;2023-05-10T00:12:59;18.70;89.60
9973;DHT22;5027;53.560;10.062;2023-05-10T00:15:26;18.70;89.80
9973;DHT22;5027;53.560;10.062;2023-05-10T00:17:53;18.70;90.00
9973;DHT22;5027;53.560;10.062;2023-05-10T00:20:19;18.70;90.00
9973;DHT22;5027;53.560;10.062;2023-05-10T00:22:46;18.70;90.00
9973;DHT22;5027;53.560;10.062;2023-05-10T00:25:13;18.70;90.00
9973;DHT22;5027;53.560;10.062;2023-05-10T00:27:40;18.70;90.10
9973;DHT22;5027;53.560;10.062;2023-05-10T00:30:07;18.60;90.10
9973;DHT22;5027;53.560;10.062;2023-05-10T00:32:34;18.60;90.40
9973;DHT22;5027;53.560;10.062;2023-05-10T00:35:01;18.60;90.10
9973;DHT22;5027;53.560;10.062;2023-05-10T00:37:27;18.60;90.10
9973;DHT22;5027;53.560;10.062;2023-05-10T00:39:54;18.60;90.30
9973;DHT22;5027;53.560;10.062;2023-05-10T00:42:22;18.60;90.40
9973;DHT22;5027;53.560;10.062;2023-05-10T00:44:48;18.60;90.40
9973;DHT22;5027;53.560;10.062;2023-05-10T00:47:16;18.60;90.30
9973;DHT22;5027;53.560;10.062;2023-05-10T00:49:43;18.60;90.30
9973;DHT22;5027;53.560;10.062;2023-05-10T00:52:10;18.60;90.30
9973;DHT22;5027;53.560;10.062;2023-05-10T00:54:37;18.60;90.40
9973;DHT22;5027;53.560;10.062;2023-05-10T00:57:04;18.60;90.40
9973;DHT22;5027;53.560;10.062;2023-05-10T00:59:31;18.60;90.50
9973;DHT22;5027;53.560;10.062;2023-05-10T01:01:58;18.60;90.60
9973;DHT22;5027;53.560;10.062;2023-05-10T01:04:25;18.50;90.50
9973;DHT22;5027;53.560;10.062;2023-05-10T01:06:56;18.50;90.60
9973;DHT22;5027;53.560;10.062;2023-05-10T01:09:24;18.50;90.60
9973;DHT22;5027;53.560;10.062;2023-05-10T01:11:53;18.40;90.50
9973;DHT22;5027;53.560;10.062;2023-05-10T01:14:21;18.40;90.50
9973;DHT22;5027;53.560;10.062;2023-05-10T01:16:49;18.40;90.60
9973;DHT22;5027;53.560;10.062;2023-05-10T01:19:23;18.40;90.70
9973;DHT22;5027;53.560;10.062;2023-05-10T01:22:25;18.40;90.80
9973;DHT22;5027;53.560;10.062;2023-05-10T01:30:55;18.30;90.80
9973;DHT22;5027;53.560;10.062;2023-05-10T01:36:47;18.30;90.70
9973;DHT22;5027;53.560;10.062;2023-05-10T01:39:25;18.30;90.90
9973;DHT22;5027;53.560;10.062;2023-05-10T01:42:10;18.30;90.90
9973;DHT22;5027;53.560;10.062;2023-05-10T01:44:58;18.30;90.80
9973;DHT22;5027;53.560;10.062;2023-05-10T01:47:37;18.30;90.80
9973;DHT22;5027;53.560;10.062;2023-05-10T01:50:10;18.30;90.80
9973;DHT22;5027;53.560;10.062;2023-05-10T01:52:50;18.30;91.00
9973;DHT22;5027;53.560;10.062;2023-05-10T01:55:20;18.30;91.30
9973;DHT22;5027;53.560;10.062;2023-05-10T01:57:52;18.30;91.00
9973;DHT22;5027;53.560;10.062;2023-05-10T02:00:22;18.20;90.90
9973;DHT22;5027;53.560;10.062;2023-05-10T02:02:52;18.20;90.90
9973;DHT22;5027;53.560;10.062;2023-05-10T02:05:20;18.20;91.00
9973;DHT22;5027;53.560;10.062;2023-05-10T02:07:49;18.20;91.00
9973;DHT22;5027;53.560;10.062;2023-05-10T02:10:17;18.30;91.10
9973;DHT22;5027;53.560;10.062;2023-05-10T02:12:47;18.20;91.00
9973;DHT22;5027;53.560;10.062;2023-05-10T02:15:20;18.20;91.10
9973;DHT22;5027;53.560;10.062;2023-05-10T02:17:47;18.20;91.10
9973;DHT22;5027;53.560;10.062;2023-05-10T02:20:16;18.20;91.10
9973;DHT22;5027;53.560;10.062;2023-05-10T02:22:45;18.20;91.20
9973;DHT22;5027;53.560;10.062;2023-05-10T02:25:13;18.10;91.20
9973;DHT22;5027;53.560;10.062;2023-05-10T02:27:43;18.10;91.30
9973;DHT22;5027;53.560;10.062;2023-05-10T02:30:11;18.10;91.30
9973;DHT22;5027;53.560;10.062;2023-05-10T02:32:39;18.10;91.40
9973;DHT22;5027;53.560;10.062;2023-05-10T02:35:08;18.10;91.50
9973;DHT22;5027;53.560;10.062;2023-05-10T02:37:37;18.10;91.40
9973;DHT22;5027;53.560;10.062;2023-05-10T02:40:05;18.10;91.40
9973;DHT22;5027;53.560;10.062;2023-05-10T02:42:35;18.10;91.50
9973;DHT22;5027;53.560;10.062;2023-05-10T02:45:07;18.00;91.50
9973;DHT22;5027;53.560;10.062;2023-05-10T02:47:35;18.00;91.50
9973;DHT22;5027;53.560;10.062;2023-05-10T02:50:02;18.00;91.50
9973;DHT22;5027;53.560;10.062;2023-05-10T02:52:49;18.00;91.50
9973;DHT22;5027;53.560;10.062;2023-05-10T02:55:21;17.90;91.50
9973;DHT22;5027;53.560;10.062;2023-05-10T02:57:52;18.00;91.60
9973;DHT22;5027;53.560;10.062;2023-05-10T03:00:20;18.00;91.50
9973;DHT22;5027;53.560;10.062;2023-05-10T03:02:47;18.00;91.60
9973;DHT22;5027;53.560;10.062;2023-05-10T03:05:14;17.90;91.70
9973;DHT22;5027;53.560;10.062;2023-05-10T03:07:41;17.90;91.60
9973;DHT22;5027;53.560;10.062;2023-05-10T03:10:08;17.90;91.60
9973;DHT22;5027;53.560;10.062;2023-05-10T03:13:13;17.90;91.60
9973;DHT22;5027;53.560;10.062;2023-05-10T03:18:22;17.90;91.70
9973;DHT22;5027;53.560;10.062;2023-05-10T03:20:51;17.90;91.80
9973;DHT22;5027;53.560;10.062;2023-05-10T03:25:53;17.90;91.80
9973;DHT22;5027;53.560;10.062;2023-05-10T03:28:21;17.90;91.90
9973;DHT22;5027;53.560;10.062;2023-05-10T03:30:49;17.90;91.90
9973;DHT22;5027;53.560;10.062;2023-05-10T03:33:16;17.90;91.90
9973;DHT22;5027;53.560;10.062;2023-05-10T03:35:45;17.90;91.90
9973;DHT22;5027;53.560;10.062;2023-05-10T03:38:13;17.90;91.90
9973;DHT22;5027;53.560;10.062;2023-05-10T03:40:40;17.80;92.10
9973;DHT22;5027;53.560;10.062;2023-05-10T03:43:07;17.90;92.10
9973;DHT22;5027;53.560;10.062;2023-05-10T03:45:34;17.90;92.10
9973;DHT22;5027;53.560;10.062;2023-05-10T03:48:01;17.90;92.30
9973;DHT22;5027;53.560;10.062;2023-05-10T03:50:27;17.80;92.10
9973;DHT22;5027;53.560;10.062;2023-05-10T03:52:54;17.80;92.10
9973;DHT22;5027;53.560;10.062;2023-05-10T03:55:21;17.80;92.10
9973;DHT22;5027;53.560;10.062;2023-05-10T03:57:49;17.90;92.20
9973;DHT22;5027;53.560;10.062;2023-05-10T04:00:21;17.80;92.10
9973;DHT22;5027;53.560;10.062;2023-05-10T04:02:51;17.80;92.10
9973;DHT22;5027;53.560;10.062;2023-05-10T04:05:19;17.80;92.10
9973;DHT22;5027;53.560;10.062;2023-05-10T04:07:46;17.80;92.20
9973;DHT22;5027;53.560;10.062;2023-05-10T04:10:14;17.80;92.30
9973;DHT22;5027;53.560;10.062;2023-05-10T04:12:41;17.80;92.20
9973;DHT22;5027;53.560;10.062;2023-05-10T04:15:08;17.80;92.20
9973;DHT22;5027;53.560;10.062;2023-05-10T04:17:35;17.80;92.30
9973;DHT22;5027;53.560;10.062;2023-05-10T04:20:01;17.80;92.20
9973;DHT22;5027;53.560;10.062;2023-05-10T04:22:29;17.80;92.20
9973;DHT22;5027;53.560;10.062;2023-05-10T04:24:56;17.80;92.40
9973;DHT22;5027;53.560;10.062;2023-05-10T04:27:23;17.80;92.20
9973;DHT22;5027;53.560;10.062;2023-05-10T04:29:50;17.80;92.40
9973;DHT22;5027;53.560;10.062;2023-05-10T04:32:17;17.80;92.40
9973;DHT22;5027;53.560;10.062;2023-05-10T04:34:44;17.80;92.50
9973;DHT22;5027;53.560;10.062;2023-05-10T04:37:10;17.80;92.40
9973;DHT22;5027;53.560;10.062;2023-05-10T04:39:37;17.80;92.60
9973;DHT22;5027;53.560;10.062;2023-05-10T04:42:07;17.80;92.50
9973;DHT22;5027;53.560;10.062;2023-05-10T04:44:34;17.70;92.50
9973;DHT22;5027;53.560;10.062;2023-05-10T04:47:01;17.80;92.50
9973;DHT22;5027;53.560;10.062;2023-05-10T04:49:29;17.80;92.60
9973;DHT22;5027;53.560;10.062;2023-05-10T04:51:56;17.80;92.50
9973;DHT22;5027;53.560;10.062;2023-05-10T04:54:23;17.80;92.50
9973;DHT22;5027;53.560;10.062;2023-05-10T04:56:49;17.80;92.60
9973;DHT22;5027;53.560;10.062;2023-05-10T04:59:16;17.80;92.60
9973;DHT22;5027;53.560;10.062;2023-05-10T05:01:43;17.80;92.80
9973;DHT22;5027;53.560;10.062;2023-05-10T05:04:10;17.80;92.60
9973;DHT22;5027;53.560;10.062;2023-05-10T05:06:37;17.80;92.60
9973;DHT22;5027;53.560;10.062;2023-05-10T05:09:03;17.80;92.80
9973;DHT22;5027;53.560;10.062;2023-05-10T05:11:30;17.80;92.70
9973;DHT22;5027;53.560;10.062;2023-05-10T05:13:56;17.80;92.80
9973;DHT22;5027;53.560;10.062;2023-05-10T05:16:25;17.80;93.00
9973;DHT22;5027;53.560;10.062;2023-05-10T05:18:52;17.80;92.70
9973;DHT22;5027;53.560;10.062;2023-05-10T05:21:19;17.80;92.50
9973;DHT22;5027;53.560;10.062;2023-05-10T05:23:46;17.80;92.90
9973;DHT22;5027;53.560;10.062;2023-05-10T05:26:13;17.80;92.80
9973;DHT22;5027;53.560;10.062;2023-05-10T05:28:41;17.70;92.80
9973;DHT22;5027;53.560;10.062;2023-05-10T05:31:08;17.80;92.70
9973;DHT22;5027;53.560;10.062;2023-05-10T05:33:35;17.70;92.50
9973;DHT22;5027;53.560;10.062;2023-05-10T05:36:02;17.60;92.40
9973;DHT22;5027;53.560;10.062;2023-05-10T05:38:30;17.70;92.50
9973;DHT22;5027;53.560;10.062;2023-05-10T05:40:56;17.70;92.60
9973;DHT22;5027;53.560;10.062;2023-05-10T05:43:23;17.80;92.50
9973;DHT22;5027;53.560;10.062;2023-05-10T05:45:52;17.70;92.50
9973;DHT22;5027;53.560;10.062;2023-05-10T05:48:20;17.70;92.60
9973;DHT22;5027;53.560;10.062;2023-05-10T05:50:47;17.80;92.70
9973;DHT22;5027;53.560;10.062;2023-05-10T05:53:13;17.80;92.50
9973;DHT22;5027;53.560;10.062;2023-05-10T05:55:40;17.90;92.70
9973;DHT22;5027;53.560;10.062;2023-05-10T05:58:06;17.80;92.50
9973;DHT22;5027;53.560;10.062;2023-05-10T06:00:33;17.70;92.40
9973;DHT22;5027;53.560;10.062;2023-05-10T06:03:00;17.70;92.60
9973;DHT22;5027;53.560;10.062;2023-05-10T06:05:27;17.60;92.60
9973;DHT22;5027;53.560;10.062;2023-05-10T06:07:54;17.60;92.40
9973;DHT22;5027;53.560;10.062;2023-05-10T06:10:20;17.60;92.70
9973;DHT22;5027;53.560;10.062;2023-05-10T06:12:47;17.80;92.40
9973;DHT22;5027;53.560;10.062;2023-05-10T06:15:13;17.80;92.60
9973;DHT22;5027;53.560;10.062;2023-05-10T06:17:40;17.80;92.80
9973;DHT22;5027;53.560;10.062;2023-05-10T06:20:08;17.70;92.60
9973;DHT22;5027;53.560;10.062;2023-05-10T06:22:34;17.70;92.70
9973;DHT22;5027;53.560;10.062;2023-05-10T06:25:01;17.80;92.80
9973;DHT22;5027;53.560;10.062;2023-05-10T06:27:28;17.80;93.00
9973;DHT22;5027;53.560;10.062;2023-05-10T06:29:55;17.80;93.10
9973;DHT22;5027;53.560;10.062;2023-05-10T06:32:35;17.90;92.70
9973;DHT22;5027;53.560;10.062;2023-05-10T06:35:01;17.80;92.70
9973;DHT22;5027;53.560;10.062;2023-05-10T06:37:28;17.80;92.90
9973;DHT22;5027;53.560;10.062;2023-05-10T06:39:55;17.90;92.90
9973;DHT22;5027;53.560;10.062;2023-05-10T06:42:21;17.80;92.90
9973;DHT22;5027;53.560;10.062;2023-05-10T06:44:48;17.90;93.00
9973;DHT22;5027;53.560;10.062;2023-05-10T06:47:15;17.90;93.20
9973;DHT22;5027;53.560;10.062;2023-05-10T06:49:41;18.00;93.20
9973;DHT22;5027;53.560;10.062;2023-05-10T06:52:08;18.00;93.00
9973;DHT22;5027;53.560;10.062;2023-05-10T06:54:35;17.90;93.10
9973;DHT22;5027;53.560;10.062;2023-05-10T06:57:01;17.90;93.30
9973;DHT22;5027;53.560;10.062;2023-05-10T06:59:34;17.90;93.20
9973;DHT22;5027;53.560;10.062;2023-05-10T07:02:01;17.90;93.40
9973;DHT22;5027;53.560;10.062;2023-05-10T07:04:28;18.00;93.10
9973;DHT22;5027;53.560;10.062;2023-05-10T07:06:54;18.00;93.40
9973;DHT22;5027;53.560;10.062;2023-05-10T07:09:21;18.10;93.50
9973;DHT22;5027;53.560;10.062;2023-05-10T07:11:47;18.00;93.20
9973;DHT22;5027;53.560;10.062;2023-05-10T07:14:14;18.00;93.50
9973;DHT22;5027;53.560;10.062;2023-05-10T07:16:41;18.10;93.50
9973;DHT22;5027;53.560;10.062;2023-05-10T07:19:08;18.00;93.50
9973;DHT22;5027;53.560;10.062;2023-05-10T07:21:36;17.90;93.50
9973;DHT22;5027;53.560;10.062;2023-05-10T07:24:03;17.90;93.80
9973;DHT22;5027;53.560;10.062;2023-05-10T07:26:29;17.90;93.70
9973;DHT22;5027;53.560;10.062;2023-05-10T07:28:56;17.90;93.70
9973;DHT22;5027;53.560;10.062;2023-05-10T07:31:23;17.90;93.70
9973;DHT22;5027;53.560;10.062;2023-05-10T07:33:49;17.90;93.70
9973;DHT22;5027;53.560;10.062;2023-05-10T07:36:16;17.90;93.90
9973;DHT22;5027;53.560;10.062;2023-05-10T07:38:43;18.10;94.10
9973;DHT22;5027;53.560;10.062;2023-05-10T07:41:10;18.10;93.60
9973;DHT22;5027;53.560;10.062;2023-05-10T07:43:37;18.10;93.70
9973;DHT22;5027;53.560;10.062;2023-05-10T07:46:04;18.00;93.50
9973;DHT22;5027;53.560;10.062;2023-05-10T07:48:31;18.00;93.40
9973;DHT22;5027;53.560;10.062;2023-05-10T07:50:58;18.00;93.40
9973;DHT22;5027;53.560;10.062;2023-05-10T07:53:26;18.10;93.60
9973;DHT22;5027;53.560;10.062;2023-05-10T07:55:56;18.10;93.40
9973;DHT22;5027;53.560;10.062;2023-05-10T07:58:24;18.10;93.50
9973;DHT22;5027;53.560;10.062;2023-05-10T08:00:51;18.10;93.50
9973;DHT22;5027;53.560;10.062;2023-05-10T08:03:18;18.20;93.50
9973;DHT22;5027;53.560;10.062;2023-05-10T08:05:44;18.20;93.50
9973;DHT22;5027;53.560;10.062;2023-05-10T08:08:22;18.20;93.60
9973;DHT22;5027;53.560;10.062;2023-05-10T08:10:50;18.30;94.00
9973;DHT22;5027;53.560;10.062;2023-05-10T08:13:17;18.30;93.60
9973;DHT22;5027;53.560;10.062;2023-05-10T08:15:43;18.30;93.50
9973;DHT22;5027;53.560;10.062;2023-05-10T08:18:10;18.30;93.70
9973;DHT22;5027;53.560;10.062;2023-05-10T08:20:37;18.20;93.70
9973;DHT22;5027;53.560;10.062;2023-05-10T08:23:03;18.10;94.00
9973;DHT22;5027;53.560;10.062;2023-05-10T08:25:31;18.20;94.20
9973;DHT22;5027;53.560;10.062;2023-05-10T08:27:57;18.20;94.30
9973;DHT22;5027;53.560;10.062;2023-05-10T08:30:24;18.20;94.00
9973;DHT22;5027;53.560;10.062;2023-05-10T08:32:51;18.30;94.20
9973;DHT22;5027;53.560;10.062;2023-05-10T08:35:17;18.20;94.10
9973;DHT22;5027;53.560;10.062;2023-05-10T08:37:44;18.30;94.10
9973;DHT22;5027;53.560;10.062;2023-05-10T08:40:12;18.30;94.40
9973;DHT22;5027;53.560;10.062;2023-05-10T08:42:43;18.40;94.20
9973;DHT22;5027;53.560;10.062;2023-05-10T08:45:15;18.40;94.60
9973;DHT22;5027;53.560;10.062;2023-05-10T08:47:43;18.40;94.40
9973;DHT22;5027;53.560;10.062;2023-05-10T08:50:10;18.50;94.20
9973;DHT22;5027;53.560;10.062;2023-05-10T08:52:38;18.40;94.00
9973;DHT22;5027;53.560;10.062;2023-05-10T08:55:07;18.40;94.20
9973;DHT22;5027;53.560;10.062;2023-05-10T08:57:36;18.40;94.40
9973;DHT22;5027;53.560;10.062;2023-05-10T09:00:03;18.50;94.50
9973;DHT22;5027;53.560;10.062;2023-05-10T09:02:30;18.50;94.20
9973;DHT22;5027;53.560;10.062;2023-05-10T09:04:57;18.50;94.30
9973;DHT22;5027;53.560;10.062;2023-05-10T09:07:23;18.50;94.20
9973;DHT22;5027;53.560;10.062;2023-05-10T09:09:51;18.50;94.50
9973;DHT22;5027;53.560;10.062;2023-05-10T09:12:18;18.50;94.30
9973;DHT22;5027;53.560;10.062;2023-05-10T09:14:45;18.50;94.80
9973;DHT22;5027;53.560;10.062;2023-05-10T09:17:13;18.50;94.90
9973;DHT22;5027;53.560;10.062;2023-05-10T09:19:42;18.50;94.80
9973;DHT22;5027;53.560;10.062;2023-05-10T09:22:09;18.50;95.20
9973;DHT22;5027;53.560;10.062;2023-05-10T09:24:36;18.50;94.90
9973;DHT22;5027;53.560;10.062;2023-05-10T09:27:08;18.50;95.10
9973;DHT22;5027;53.560;10.062;2023-05-10T09:29:39;18.50;95.30
9973;DHT22;5027;53.560;10.062;2023-05-10T09:32:06;18.50;95.30
9973;DHT22;5027;53.560;10.062;2023-05-10T09:34:33;18.50;95.20
9973;DHT22;5027;53.560;10.062;2023-05-10T09:37:02;18.40;95.30
9973;DHT22;5027;53.560;10.062;2023-05-10T09:39:35;18.30;95.50
9973;DHT22;5027;53.560;10.062;2023-05-10T09:42:10;18.10;95.70
9973;DHT22;5027;53.560;10.062;2023-05-10T09:44:36;18.10;96.20
9973;DHT22;5027;53.560;10.062;2023-05-10T09:47:05;18.10;96.40
9973;DHT22;5027;53.560;10.062;2023-05-10T09:49:32;18.10;96.50
9973;DHT22;5027;53.560;10.062;2023-05-10T09:52:04;18.10;97.20
9973;DHT22;5027;53.560;10.062;2023-05-10T09:54:32;18.10;98.20
9973;DHT22;5027;53.560;10.062;2023-05-10T09:56:59;18.10;99.20
9973;DHT22;5027;53.560;10.062;2023-05-10T09:59:27;18.10;99.60
9973;DHT22;5027;53.560;10.062;2023-05-10T10:01:59;18.10;99.90
9973;DHT22;5027;53.560;10.062;2023-05-10T10:04:26;17.90;99.90
9973;DHT22;5027;53.560;10.062;2023-05-10T10:07:01;17.90;99.90
9973;DHT22;5027;53.560;10.062;2023-05-10T10:09:28;17.90;99.90
9973;DHT22;5027;53.560;10.062;2023-05-10T10:11:55;17.90;99.90
9973;DHT22;5027;53.560;10.062;2023-05-10T10:14:23;17.90;99.90
9973;DHT22;5027;53.560;10.062;2023-05-10T10:16:51;17.90;99.90
9973;DHT22;5027;53.560;10.062;2023-05-10T10:19:33;17.80;99.90
9973;DHT22;5027;53.560;10.062;2023-05-10T10:22:01;17.80;99.90
9973;DHT22;5027;53.560;10.062;2023-05-10T10:24:28;17.80;99.90
9973;DHT22;5027;53.560;10.062;2023-05-10T10:26:59;17.80;99.90
9973;DHT22;5027;53.560;10.062;2023-05-10T10:29:43;17.90;99.90
9973;DHT22;5027;53.560;10.062;2023-05-10T10:32:27;17.70;99.90
9973;DHT22;5027;53.560;10.062;2023-05-10T10:34:56;17.50;99.90
9973;DHT22;5027;53.560;10.062;2023-05-10T10:37:24;17.60;99.90
9973;DHT22;5027;53.560;10.062;2023-05-10T10:40:27;17.60;99.90
9973;DHT22;5027;53.560;10.062;2023-05-10T10:42:54;17.60;99.90
9973;DHT22;5027;53.560;10.062;2023-05-10T10:45:23;17.60;99.90
9973;DHT22;5027;53.560;10.062;2023-05-10T10:50:45;17.70;99.90
9973;DHT22;5027;53.560;10.062;2023-05-10T10:53:13;17.80;99.90
9973;DHT22;5027;53.560;10.062;2023-05-10T10:55:48;17.70;99.90
9973;DHT22;5027;53.560;10.062;2023-05-10T10:58:31;17.60;99.90
9973;DHT22;5027;53.560;10.062;2023-05-10T11:01:17;17.70;99.90
9973;DHT22;5027;53.560;10.062;2023-05-10T11:06:34;17.60;99.90
9973;DHT22;5027;53.560;10.062;2023-05-10T11:09:09;17.60;99.90
9973;DHT22;5027;53.560;10.062;2023-05-10T11:11:48;17.70;99.90
9973;DHT22;5027;53.560;10.062;2023-05-10T11:14:19;17.80;99.90
9973;DHT22;5027;53.560;10.062;2023-05-10T11:16:46;17.70;99.90
9973;DHT22;5027;53.560;10.062;2023-05-10T11:19:14;17.60;99.90
9973;DHT22;5027;53.560;10.062;2023-05-10T11:24:37;17.40;99.90
9973;DHT22;5027;53.560;10.062;2023-05-10T11:27:04;17.60;99.90
9973;DHT22;5027;53.560;10.062;2023-05-10T11:29:31;17.60;99.90
9973;DHT22;5027;53.560;10.062;2023-05-10T11:31:59;17.70;99.90
9973;DHT22;5027;53.560;10.062;2023-05-10T11:34:31;17.70;99.90
9973;DHT22;5027;53.560;10.062;2023-05-10T11:37:00;17.80;99.90
9973;DHT22;5027;53.560;10.062;2023-05-10T11:39:27;17.90;99.90
9973;DHT22;5027;53.560;10.062;2023-05-10T11:41:55;17.90;99.90
9973;DHT22;5027;53.560;10.062;2023-05-10T11:44:21;17.80;99.90
9973;DHT22;5027;53.560;10.062;2023-05-10T11:46:49;17.80;99.90
9973;DHT22;5027;53.560;10.062;2023-05-10T11:49:19;17.70;99.90
9973;DHT22;5027;53.560;10.062;2023-05-10T11:51:47;17.80;99.90
9973;DHT22;5027;53.560;10.062;2023-05-10T11:54:13;17.70;99.90
9973;DHT22;5027;53.560;10.062;2023-05-10T11:56:41;17.80;99.90
9973;DHT22;5027;53.560;10.062;2023-05-10T11:59:07;17.80;99.90
9973;DHT22;5027;53.560;10.062;2023-05-10T12:01:35;17.80;99.90
9973;DHT22;5027;53.560;10.062;2023-05-10T12:04:02;17.80;99.90
9973;DHT22;5027;53.560;10.062;2023-05-10T12:06:31;17.70;99.90
9973;DHT22;5027;53.560;10.062;2023-05-10T12:08:59;17.70;99.90
9973;DHT22;5027;53.560;10.062;2023-05-10T12:11:27;17.70;99.90
9973;DHT22;5027;53.560;10.062;2023-05-10T12:13:54;17.70;99.90
9973;DHT22;5027;53.560;10.062;2023-05-10T12:16:28;17.60;99.90
9973;DHT22;5027;53.560;10.062;2023-05-10T12:18:57;17.60;99.90
9973;DHT22;5027;53.560;10.062;2023-05-10T12:21:25;17.60;99.90
9973;DHT22;5027;53.560;10.062;2023-05-10T12:23:54;17.70;99.90
9973;DHT22;5027;53.560;10.062;2023-05-10T12:26:24;17.80;99.90
9973;DHT22;5027;53.560;10.062;2023-05-10T12:28:53;17.70;99.90
9973;DHT22;5027;53.560;10.062;2023-05-10T12:31:20;17.80;99.90
9973;DHT22;5027;53.560;10.062;2023-05-10T12:33:47;17.80;99.90
9973;DHT22;5027;53.560;10.062;2023-05-10T12:36:16;17.90;99.90
9973;DHT22;5027;53.560;10.062;2023-05-10T12:38:45;17.90;99.90
9973;DHT22;5027;53.560;10.062;2023-05-10T12:41:16;18.00;99.90
9973;DHT22;5027;53.560;10.062;2023-05-10T12:43:44;18.00;99.90
9973;DHT22;5027;53.560;10.062;2023-05-10T12:46:13;18.10;99.90
9973;DHT22;5027;53.560;10.062;2023-05-10T12:48:42;18.10;99.90
9973;DHT22;5027;53.560;10.062;2023-05-10T12:51:10;18.10;99.90
9973;DHT22;5027;53.560;10.062;2023-05-10T12:53:39;18.10;99.90
9973;DHT22;5027;53.560;10.062;2023-05-10T12:56:09;18.10;99.90
9973;DHT22;5027;53.560;10.062;2023-05-10T12:58:36;18.10;99.90
9973;DHT22;5027;53.560;10.062;2023-05-10T13:01:04;18.10;99.90
9973;DHT22;5027;53.560;10.062;2023-05-10T13:03:31;18.20;99.90
9973;DHT22;5027;53.560;10.062;2023-05-10T13:05:58;18.20;99.90
9973;DHT22;5027;53.560;10.062;2023-05-10T13:08:25;18.30;99.90
9973;DHT22;5027;53.560;10.062;2023-05-10T13:10:52;18.30;99.90
9973;DHT22;5027;53.560;10.062;2023-05-10T13:13:18;18.30;99.90
9973;DHT22;5027;53.560;10.062;2023-05-10T13:15:45;18.30;99.90
9973;DHT22;5027;53.560;10.062;2023-05-10T13:18:12;18.30;99.90
9973;DHT22;5027;53.560;10.062;2023-05-10T13:20:38;18.30;99.90
9973;DHT22;5027;53.560;10.062;2023-05-10T13:23:05;18.30;99.90
9973;DHT22;5027;53.560;10.062;2023-05-10T13:25:32;18.30;99.90
9973;DHT22;5027;53.560;10.062;2023-05-10T13:28:00;18.30;99.90
9973;DHT22;5027;53.560;10.062;2023-05-10T13:30:27;18.30;99.90
9973;DHT22;5027;53.560;10.062;2023-05-10T13:32:55;18.40;99.90
9973;DHT22;5027;53.560;10.062;2023-05-10T13:35:22;18.50;99.90
9973;DHT22;5027;53.560;10.062;2023-05-10T13:37:48;18.50;99.90
9973;DHT22;5027;53.560;10.062;2023-05-10T13:40:16;18.40;99.90
9973;DHT22;5027;53.560;10.062;2023-05-10T13:42:43;18.40;99.90
9973;DHT22;5027;53.560;10.062;2023-05-10T13:45:10;18.30;99.90
9973;DHT22;5027;53.560;10.062;2023-05-10T13:47:38;18.30;99.90
9973;DHT22;5027;53.560;10.062;2023-05-10T13:50:06;18.30;99.90
9973;DHT22;5027;53.560;10.062;2023-05-10T13:52:33;18.40;99.90
9973;DHT22;5027;53.560;10.062;2023-05-10T13:55:00;18.40;99.90
9973;DHT22;5027;53.560;10.062;2023-05-10T13:57:27;18.30;99.90
9973;DHT22;5027;53.560;10.062;2023-05-10T13:59:55;18.40;99.90
9973;DHT22;5027;53.560;10.062;2023-05-10T14:02:23;18.30;99.90
9973;DHT22;5027;53.560;10.062;2023-05-10T14:04:51;18.40;99.90
9973;DHT22;5027;53.560;10.062;2023-05-10T14:07:17;18.30;99.90
9973;DHT22;5027;53.560;10.062;2023-05-10T14:09:44;18.30;99.90
9973;DHT22;5027;53.560;10.062;2023-05-10T14:12:11;18.40;99.90
9973;DHT22;5027;53.560;10.062;2023-05-10T14:14:38;18.40;99.90
9973;DHT22;5027;53.560;10.062;2023-05-10T14:17:05;18.30;99.90
9973;DHT22;5027;53.560;10.062;2023-05-10T14:19:32;18.40;99.90
9973;DHT22;5027;53.560;10.062;2023-05-10T14:22:00;18.40;99.90
9973;DHT22;5027;53.560;10.062;2023-05-10T14:24:26;18.50;99.90
9973;DHT22;5027;53.560;10.062;2023-05-10T14:26:53;18.40;99.90
9973;DHT22;5027;53.560;10.062;2023-05-10T14:29:21;18.40;99.90
9973;DHT22;5027;53.560;10.062;2023-05-10T14:31:47;18.40;99.90
9973;DHT22;5027;53.560;10.062;2023-05-10T14:34:14;18.30;99.90
9973;DHT22;5027;53.560;10.062;2023-05-10T14:36:41;18.40;99.90
9973;DHT22;5027;53.560;10.062;2023-05-10T14:39:07;18.40;99.90
9973;DHT22;5027;53.560;10.062;2023-05-10T14:41:36;18.40;99.90
9973;DHT22;5027;53.560;10.062;2023-05-10T14:44:03;18.40;99.90
9973;DHT22;5027;53.560;10.062;2023-05-10T14:46:30;18.30;99.90
9973;DHT22;5027;53.560;10.062;2023-05-10T14:48:57;18.40;99.90
9973;DHT22;5027;53.560;10.062;2023-05-10T14:51:24;18.40;99.90
9973;DHT22;5027;53.560;10.062;2023-05-10T14:53:50;18.40;99.90
9973;DHT22;5027;53.560;10.062;2023-05-10T14:56:17;18.40;99.90
9973;DHT22;5027;53.560;10.062;2023-05-10T14:58:44;18.40;99.90
9973;DHT22;5027;53.560;10.062;2023-05-10T15:01:11;18.40;99.90
9973;DHT22;5027;53.560;10.062;2023-05-10T15:03:38;18.40;99.90
9973;DHT22;5027;53.560;10.062;2023-05-10T15:06:05;18.40;99.90
9973;DHT22;5027;53.560;10.062;2023-05-10T15:08:32;18.30;99.90
9973;DHT22;5027;53.560;10.062;2023-05-10T15:10:59;18.40;99.90
9973;DHT22;5027;53.560;10.062;2023-05-10T15:13:25;18.50;99.90
9973;DHT22;5027;53.560;10.062;2023-05-10T15:15:52;18.50;99.90
9973;DHT22;5027;53.560;10.062;2023-05-10T15:18:19;18.50;99.90
9973;DHT22;5027;53.560;10.062;2023-05-10T15:20:46;18.50;99.90
9973;DHT22;5027;53.560;10.062;2023-05-10T15:23:12;18.50;99.90
9973;DHT22;5027;53.560;10.062;2023-05-10T15:25:39;18.50;99.90
9973;DHT22;5027;53.560;10.062;2023-05-10T15:28:05;18.50;99.90
9973;DHT22;5027;53.560;10.062;2023-05-10T15:30:32;18.50;99.90
9973;DHT22;5027;53.560;10.062;2023-05-10T15:32:59;18.50;99.90
9973;DHT22;5027;53.560;10.062;2023-05-10T15:35:26;18.50;99.90
9973;DHT22;5027;53.560;10.062;2023-05-10T15:37:53;18.50;99.90
9973;DHT22;5027;53.560;10.062;2023-05-10T15:40:20;18.50;99.90
9973;DHT22;5027;53.560;10.062;2023-05-10T15:42:46;18.50;99.90
9973;DHT22;5027;53.560;10.062;2023-05-10T15:45:13;18.50;99.90
9973;DHT22;5027;53.560;10.062;2023-05-10T15:47:40;18.40;99.90
9973;DHT22;5027;53.560;10.062;2023-05-10T15:50:07;18.40;99.90
9973;DHT22;5027;53.560;10.062;2023-05-10T15:52:35;18.50;99.90
9973;DHT22;5027;53.560;10.062;2023-05-10T15:55:03;18.50;99.90
9973;DHT22;5027;53.560;10.062;2023-05-10T15:57:29;18.50;99.90
9973;DHT22;5027;53.560;10.062;2023-05-10T15:59:56;18.40;99.90
9973;DHT22;5027;53.560;10.062;2023-05-10T16:02:23;18.50;99.90
9973;DHT22;5027;53.560;10.062;2023-05-10T16:04:50;18.50;99.90
9973;DHT22;5027;53.560;10.062;2023-05-10T16:07:17;18.50;99.90
9973;DHT22;5027;53.560;10.062;2023-05-10T16:09:44;18.40;99.90
9973;DHT22;5027;53.560;10.062;2023-05-10T16:12:10;18.50;99.90
9973;DHT22;5027;53.560;10.062;2023-05-10T16:14:37;18.40;99.90